sensor_id;sensor_type;location;lat;lon;timestamp;pressure;altitude;pressure_sealevel;temperature;humidity
70338;BME280;57757;53.198;19.646;2023-02-04T00:00:22;99987.73;;;-0.78;79.19
70338;BME280;57757;53.198;19.646;2023-02-04T00:03:09;99991.02;;;-0.77;79.22
70338;BME280;57757;53.198;19.646;2023-02-04T00:05:37;99993.74;;;-0.76;79.11
70338;BME280;57757;53.198;19.646;2023-02-04T00:08:05;99993.09;;;-0.76;79.26
70338;BME280;57757;53.198;19.646;2023-02-04T00:10:33;99997.90;;;-0.74;79.23
70338;BME280;57757;53.198;19.646;2023-02-04T00:13:02;100013.11;;;-0.73;79.23
70338;BME280;57757;53.198;19.646;2023-02-04T00:15:30;100016.52;;;-0.72;79.29
70338;BME280;57757;53.198;19.646;2023-02-04T00:17:58;100025.11;;;-0.71;79.24
70338;BME280;57757;53.198;19.646;2023-02-04T00:20:26;100027.37;;;-0.68;79.28
70338;BME280;57757;53.198;19.646;2023-02-04T00:22:54;100031.64;;;-0.69;79.21
70338;BME280;57757;53.198;19.646;2023-02-04T00:25:23;100043.29;;;-0.67;79.22
70338;BME280;57757;53.198;19.646;2023-02-04T00:27:51;100052.36;;;-0.66;79.16
70338;BME280;57757;53.198;19.646;2023-02-04T00:30:19;100058.67;;;-0.66;79.07
70338;BME280;57757;53.198;19.646;2023-02-04T00:32:47;100066.33;;;-0.67;78.97
70338;BME280;57757;53.198;19.646;2023-02-04T00:35:16;100077.41;;;-0.68;79.01
70338;BME280;57757;53.198;19.646;2023-02-04T00:37:43;100087.13;;;-0.69;79.06
70338;BME280;57757;53.198;19.646;2023-02-04T00:40:11;100097.71;;;-0.69;78.96
70338;BME280;57757;53.198;19.646;2023-02-04T00:42:39;100108.46;;;-0.70;79.01
70338;BME280;57757;53.198;19.646;2023-02-04T00:45:08;100112.18;;;-0.72;78.99
70338;BME280;57757;53.198;19.646;2023-02-04T00:47:36;100122.05;;;-0.73;78.90
70338;BME280;57757;53.198;19.646;2023-02-04T00:50:04;100136.52;;;-0.75;78.91
70338;BME280;57757;53.198;19.646;2023-02-04T00:52:32;100148.10;;;-0.76;78.93
70338;BME280;57757;53.198;19.646;2023-02-04T00:55:00;100159.86;;;-0.78;78.95
70338;BME280;57757;53.198;19.646;2023-02-04T00:57:28;100165.83;;;-0.78;78.96
70338;BME280;57757;53.198;19.646;2023-02-04T00:59:56;100172.77;;;-0.81;78.91
70338;BME280;57757;53.198;19.646;2023-02-04T01:02:24;100178.36;;;-0.83;78.90
70338;BME280;57757;53.198;19.646;2023-02-04T01:04:52;100185.64;;;-0.86;78.86
70338;BME280;57757;53.198;19.646;2023-02-04T01:07:19;100196.45;;;-0.90;78.70
70338;BME280;57757;53.198;19.646;2023-02-04T01:09:47;100201.67;;;-0.94;78.71
70338;BME280;57757;53.198;19.646;2023-02-04T01:12:15;100210.67;;;-0.96;78.79
70338;BME280;57757;53.198;19.646;2023-02-04T01:14:43;100217.42;;;-0.99;78.73
70338;BME280;57757;53.198;19.646;2023-02-04T01:17:11;100220.13;;;-1.01;78.79
70338;BME280;57757;53.198;19.646;2023-02-04T01:19:39;100228.44;;;-1.03;78.81
70338;BME280;57757;53.198;19.646;2023-02-04T01:22:07;100237.60;;;-1.05;78.82
70338;BME280;57757;53.198;19.646;2023-02-04T01:24:34;100247.98;;;-1.06;78.85
70338;BME280;57757;53.198;19.646;2023-02-04T01:27:02;100255.12;;;-1.07;78.76
70338;BME280;57757;53.198;19.646;2023-02-04T01:29:30;100259.73;;;-1.08;78.82
70338;BME280;57757;53.198;19.646;2023-02-04T01:31:58;100266.33;;;-1.10;78.91
70338;BME280;57757;53.198;19.646;2023-02-04T01:34:26;100276.20;;;-1.10;78.84
70338;BME280;57757;53.198;19.646;2023-02-04T01:36:54;100285.05;;;-1.12;78.75
70338;BME280;57757;53.198;19.646;2023-02-04T01:39:21;100288.23;;;-1.14;78.87
70338;BME280;57757;53.198;19.646;2023-02-04T01:41:49;100289.90;;;-1.15;78.70
70338;BME280;57757;53.198;19.646;2023-02-04T01:44:17;100302.77;;;-1.19;78.70
70338;BME280;57757;53.198;19.646;2023-02-04T01:46:45;100315.84;;;-1.22;78.68
70338;BME280;57757;53.198;19.646;2023-02-04T01:49:13;100328.41;;;-1.24;78.69
70338;BME280;57757;53.198;19.646;2023-02-04T01:51:41;100331.56;;;-1.27;78.73
70338;BME280;57757;53.198;19.646;2023-02-04T01:54:11;100339.85;;;-1.30;78.69
70338;BME280;57757;53.198;19.646;2023-02-04T01:56:44;100347.27;;;-1.33;78.63
70338;BME280;57757;53.198;19.646;2023-02-04T01:59:14;100357.89;;;-1.38;78.61
70338;BME280;57757;53.198;19.646;2023-02-04T02:01:48;100362.66;;;-1.45;78.56
70338;BME280;57757;53.198;19.646;2023-02-04T02:04:20;100379.58;;;-1.50;78.58
70338;BME280;57757;53.198;19.646;2023-02-04T02:06:54;100387.77;;;-1.55;78.50
70338;BME280;57757;53.198;19.646;2023-02-04T02:09:25;100403.50;;;-1.60;78.57
70338;BME280;57757;53.198;19.646;2023-02-04T02:11:54;100407.81;;;-1.64;78.57
70338;BME280;57757;53.198;19.646;2023-02-04T02:14:22;100419.45;;;-1.69;78.55
70338;BME280;57757;53.198;19.646;2023-02-04T02:16:50;100429.05;;;-1.73;78.52
70338;BME280;57757;53.198;19.646;2023-02-04T02:19:28;100439.63;;;-1.78;78.44
70338;BME280;57757;53.198;19.646;2023-02-04T02:22:04;100449.55;;;-1.82;78.49
70338;BME280;57757;53.198;19.646;2023-02-04T02:24:33;100455.14;;;-1.89;78.39
70338;BME280;57757;53.198;19.646;2023-02-04T02:27:09;100464.55;;;-1.94;78.39
70338;BME280;57757;53.198;19.646;2023-02-04T02:29:39;100469.06;;;-1.97;78.49
70338;BME280;57757;53.198;19.646;2023-02-04T02:32:09;100476.96;;;-2.00;78.46
70338;BME280;57757;53.198;19.646;2023-02-04T02:34:40;100479.40;;;-2.04;78.42
70338;BME280;57757;53.198;19.646;2023-02-04T02:37:08;100493.25;;;-2.08;78.44
70338;BME280;57757;53.198;19.646;2023-02-04T02:39:38;100499.65;;;-2.09;78.56
70338;BME280;57757;53.198;19.646;2023-02-04T02:42:07;100512.95;;;-2.09;78.64
70338;BME280;57757;53.198;19.646;2023-02-04T02:44:34;100518.31;;;-2.07;78.77
70338;BME280;57757;53.198;19.646;2023-02-04T02:47:02;100526.42;;;-2.04;78.80
70338;BME280;57757;53.198;19.646;2023-02-04T02:49:31;100533.39;;;-1.99;78.76
70338;BME280;57757;53.198;19.646;2023-02-04T02:52:01;100546.27;;;-1.97;78.74
70338;BME280;57757;53.198;19.646;2023-02-04T02:54:30;100557.98;;;-1.93;78.82
70338;BME280;57757;53.198;19.646;2023-02-04T02:56:58;100564.85;;;-1.91;78.68
70338;BME280;57757;53.198;19.646;2023-02-04T02:59:26;100572.94;;;-1.89;78.74
70338;BME280;57757;53.198;19.646;2023-02-04T03:01:58;100578.80;;;-1.86;78.76
70338;BME280;57757;53.198;19.646;2023-02-04T03:04:29;100587.02;;;-1.86;78.68
70338;BME280;57757;53.198;19.646;2023-02-04T03:06:58;100587.92;;;-1.84;78.76
70338;BME280;57757;53.198;19.646;2023-02-04T03:09:26;100589.09;;;-1.85;78.66
70338;BME280;57757;53.198;19.646;2023-02-04T03:11:55;100591.04;;;-1.83;78.74
70338;BME280;57757;53.198;19.646;2023-02-04T03:14:24;100596.15;;;-1.83;78.75
70338;BME280;57757;53.198;19.646;2023-02-04T03:16:53;100602.75;;;-1.84;78.66
70338;BME280;57757;53.198;19.646;2023-02-04T03:19:23;100611.28;;;-1.89;78.55
70338;BME280;57757;53.198;19.646;2023-02-04T03:21:53;100625.08;;;-1.95;78.48
70338;BME280;57757;53.198;19.646;2023-02-04T03:24:22;100637.34;;;-2.00;78.45
70338;BME280;57757;53.198;19.646;2023-02-04T03:26:50;100650.66;;;-2.04;78.49
70338;BME280;57757;53.198;19.646;2023-02-04T03:29:18;100657.17;;;-2.08;78.55
70338;BME280;57757;53.198;19.646;2023-02-04T03:31:46;100663.54;;;-2.11;78.60
70338;BME280;57757;53.198;19.646;2023-02-04T03:34:14;100676.30;;;-2.16;78.51
70338;BME280;57757;53.198;19.646;2023-02-04T03:36:42;100687.45;;;-2.19;78.57
70338;BME280;57757;53.198;19.646;2023-02-04T03:39:10;100691.26;;;-2.22;78.61
70338;BME280;57757;53.198;19.646;2023-02-04T03:41:38;100700.84;;;-2.25;78.60
70338;BME280;57757;53.198;19.646;2023-02-04T03:44:05;100703.79;;;-2.28;78.63
70338;BME280;57757;53.198;19.646;2023-02-04T03:46:33;100718.36;;;-2.31;78.61
70338;BME280;57757;53.198;19.646;2023-02-04T03:49:01;100721.02;;;-2.32;78.71
70338;BME280;57757;53.198;19.646;2023-02-04T03:51:29;100731.89;;;-2.33;78.61
70338;BME280;57757;53.198;19.646;2023-02-04T03:53:57;100743.56;;;-2.35;78.69
70338;BME280;57757;53.198;19.646;2023-02-04T03:56:25;100758.45;;;-2.38;78.54
70338;BME280;57757;53.198;19.646;2023-02-04T03:58:53;100772.46;;;-2.42;78.57
70338;BME280;57757;53.198;19.646;2023-02-04T04:01:20;100779.48;;;-2.45;78.43
70338;BME280;57757;53.198;19.646;2023-02-04T04:03:48;100784.13;;;-2.49;78.45
70338;BME280;57757;53.198;19.646;2023-02-04T04:06:16;100792.38;;;-2.51;78.48
70338;BME280;57757;53.198;19.646;2023-02-04T04:08:44;100802.47;;;-2.54;78.50
70338;BME280;57757;53.198;19.646;2023-02-04T04:11:12;100805.20;;;-2.59;78.38
70338;BME280;57757;53.198;19.646;2023-02-04T04:13:40;100812.67;;;-2.63;78.33
70338;BME280;57757;53.198;19.646;2023-02-04T04:16:08;100818.83;;;-2.67;78.36
70338;BME280;57757;53.198;19.646;2023-02-04T04:18:36;100828.23;;;-2.70;78.33
70338;BME280;57757;53.198;19.646;2023-02-04T04:21:04;100836.67;;;-2.72;78.41
70338;BME280;57757;53.198;19.646;2023-02-04T04:23:32;100847.44;;;-2.75;78.37
70338;BME280;57757;53.198;19.646;2023-02-04T04:26:00;100852.15;;;-2.76;78.37
70338;BME280;57757;53.198;19.646;2023-02-04T04:28:28;100859.19;;;-2.79;78.37
70338;BME280;57757;53.198;19.646;2023-02-04T04:30:56;100862.72;;;-2.80;78.38
70338;BME280;57757;53.198;19.646;2023-02-04T04:33:24;100866.85;;;-2.83;78.32
70338;BME280;57757;53.198;19.646;2023-02-04T04:35:51;100873.88;;;-2.86;78.35
70338;BME280;57757;53.198;19.646;2023-02-04T04:38:19;100879.59;;;-2.88;78.30
70338;BME280;57757;53.198;19.646;2023-02-04T04:40:47;100880.12;;;-2.92;78.28
70338;BME280;57757;53.198;19.646;2023-02-04T04:43:15;100885.05;;;-2.96;78.25
70338;BME280;57757;53.198;19.646;2023-02-04T04:45:43;100889.52;;;-2.99;78.20
70338;BME280;57757;53.198;19.646;2023-02-04T04:48:11;100894.95;;;-3.03;78.13
70338;BME280;57757;53.198;19.646;2023-02-04T04:50:39;100894.97;;;-3.07;78.17
70338;BME280;57757;53.198;19.646;2023-02-04T04:53:07;100898.73;;;-3.10;78.07
70338;BME280;57757;53.198;19.646;2023-02-04T04:55:38;100906.38;;;-3.14;78.18
70338;BME280;57757;53.198;19.646;2023-02-04T04:58:07;100913.02;;;-3.18;78.18
70338;BME280;57757;53.198;19.646;2023-02-04T05:00:35;100919.15;;;-3.21;78.10
70338;BME280;57757;53.198;19.646;2023-02-04T05:03:03;100923.29;;;-3.24;78.13
70338;BME280;57757;53.198;19.646;2023-02-04T05:05:31;100926.92;;;-3.27;78.20
70338;BME280;57757;53.198;19.646;2023-02-04T05:07:59;100933.64;;;-3.29;78.12
70338;BME280;57757;53.198;19.646;2023-02-04T05:10:26;100935.38;;;-3.32;78.04
70338;BME280;57757;53.198;19.646;2023-02-04T05:12:54;100943.74;;;-3.35;78.11
70338;BME280;57757;53.198;19.646;2023-02-04T05:15:22;100949.41;;;-3.38;78.07
70338;BME280;57757;53.198;19.646;2023-02-04T05:17:50;100955.63;;;-3.40;78.08
70338;BME280;57757;53.198;19.646;2023-02-04T05:20:19;100950.08;;;-3.42;78.08
70338;BME280;57757;53.198;19.646;2023-02-04T05:22:47;100957.23;;;-3.46;78.01
70338;BME280;57757;53.198;19.646;2023-02-04T05:25:15;100964.09;;;-3.48;77.97
70338;BME280;57757;53.198;19.646;2023-02-04T05:27:43;100974.23;;;-3.49;78.05
70338;BME280;57757;53.198;19.646;2023-02-04T05:30:12;100988.48;;;-3.50;78.02
70338;BME280;57757;53.198;19.646;2023-02-04T05:32:40;100998.95;;;-3.51;78.03
70338;BME280;57757;53.198;19.646;2023-02-04T05:35:09;101005.35;;;-3.53;77.98
70338;BME280;57757;53.198;19.646;2023-02-04T05:37:37;101014.02;;;-3.53;78.03
70338;BME280;57757;53.198;19.646;2023-02-04T05:40:05;101027.80;;;-3.53;77.99
70338;BME280;57757;53.198;19.646;2023-02-04T05:42:33;101034.91;;;-3.54;77.91
70338;BME280;57757;53.198;19.646;2023-02-04T05:45:01;101039.46;;;-3.54;77.90
70338;BME280;57757;53.198;19.646;2023-02-04T05:47:29;101047.32;;;-3.54;77.92
70338;BME280;57757;53.198;19.646;2023-02-04T05:49:57;101057.07;;;-3.52;78.01
70338;BME280;57757;53.198;19.646;2023-02-04T05:52:25;101064.03;;;-3.52;77.93
70338;BME280;57757;53.198;19.646;2023-02-04T05:54:53;101065.77;;;-3.52;77.92
70338;BME280;57757;53.198;19.646;2023-02-04T05:57:20;101065.58;;;-3.52;77.88
70338;BME280;57757;53.198;19.646;2023-02-04T05:59:48;101067.41;;;-3.53;77.83
70338;BME280;57757;53.198;19.646;2023-02-04T06:02:16;101073.13;;;-3.54;77.80
70338;BME280;57757;53.198;19.646;2023-02-04T06:04:45;101085.92;;;-3.57;77.77
70338;BME280;57757;53.198;19.646;2023-02-04T06:07:12;101094.96;;;-3.60;77.77
70338;BME280;57757;53.198;19.646;2023-02-04T06:09:40;101103.95;;;-3.64;77.68
70338;BME280;57757;53.198;19.646;2023-02-04T06:12:08;101108.84;;;-3.65;77.80
70338;BME280;57757;53.198;19.646;2023-02-04T06:14:37;101113.69;;;-3.66;77.77
70338;BME280;57757;53.198;19.646;2023-02-04T06:17:04;101112.45;;;-3.64;77.93
70338;BME280;57757;53.198;19.646;2023-02-04T06:19:32;101111.92;;;-3.60;77.96
70338;BME280;57757;53.198;19.646;2023-02-04T06:22:00;101116.16;;;-3.54;78.05
70338;BME280;57757;53.198;19.646;2023-02-04T06:24:29;101115.66;;;-3.50;78.12
70338;BME280;57757;53.198;19.646;2023-02-04T06:26:56;101121.51;;;-3.48;77.97
70338;BME280;57757;53.198;19.646;2023-02-04T06:29:24;101118.61;;;-3.49;77.95
70338;BME280;57757;53.198;19.646;2023-02-04T06:31:52;101120.52;;;-3.48;77.98
70338;BME280;57757;53.198;19.646;2023-02-04T06:34:20;101124.14;;;-3.51;77.81
70338;BME280;57757;53.198;19.646;2023-02-04T06:36:48;101136.31;;;-3.52;77.83
70338;BME280;57757;53.198;19.646;2023-02-04T06:39:16;101143.43;;;-3.53;77.92
70338;BME280;57757;53.198;19.646;2023-02-04T06:41:44;101151.70;;;-3.54;77.87
70338;BME280;57757;53.198;19.646;2023-02-04T06:44:12;101157.58;;;-3.55;77.93
70338;BME280;57757;53.198;19.646;2023-02-04T06:46:40;101165.22;;;-3.55;77.93
70338;BME280;57757;53.198;19.646;2023-02-04T06:49:08;101168.27;;;-3.52;78.06
70338;BME280;57757;53.198;19.646;2023-02-04T06:51:36;101172.03;;;-3.48;78.19
70338;BME280;57757;53.198;19.646;2023-02-04T06:54:06;101168.13;;;-3.41;78.31
70338;BME280;57757;53.198;19.646;2023-02-04T06:56:34;101173.09;;;-3.33;78.25
70338;BME280;57757;53.198;19.646;2023-02-04T06:59:02;101172.48;;;-3.25;78.32
70338;BME280;57757;53.198;19.646;2023-02-04T07:01:30;101183.00;;;-3.14;78.41
70338;BME280;57757;53.198;19.646;2023-02-04T07:03:58;101185.72;;;-3.04;78.39
70338;BME280;57757;53.198;19.646;2023-02-04T07:06:26;101186.02;;;-2.94;78.38
70338;BME280;57757;53.198;19.646;2023-02-04T07:08:54;101195.39;;;-2.83;78.36
70338;BME280;57757;53.198;19.646;2023-02-04T07:11:22;101198.60;;;-2.72;78.30
70338;BME280;57757;53.198;19.646;2023-02-04T07:13:50;101205.31;;;-2.60;78.34
70338;BME280;57757;53.198;19.646;2023-02-04T07:16:18;101209.09;;;-2.48;78.32
70338;BME280;57757;53.198;19.646;2023-02-04T07:18:46;101206.22;;;-2.36;78.38
70338;BME280;57757;53.198;19.646;2023-02-04T07:21:14;101205.11;;;-2.23;78.48
70338;BME280;57757;53.198;19.646;2023-02-04T07:23:42;101206.65;;;-2.07;78.50
70338;BME280;57757;53.198;19.646;2023-02-04T07:26:10;101213.70;;;-1.86;78.60
70338;BME280;57757;53.198;19.646;2023-02-04T07:28:38;101217.84;;;-1.65;78.80
70338;BME280;57757;53.198;19.646;2023-02-04T07:31:07;101226.77;;;-1.47;78.74
70338;BME280;57757;53.198;19.646;2023-02-04T07:33:35;101231.39;;;-1.30;78.63
70338;BME280;57757;53.198;19.646;2023-02-04T07:36:04;101229.17;;;-1.18;78.39
70338;BME280;57757;53.198;19.646;2023-02-04T07:38:32;101233.64;;;-1.09;78.41
70338;BME280;57757;53.198;19.646;2023-02-04T07:41:00;101239.15;;;-1.03;78.15
70338;BME280;57757;53.198;19.646;2023-02-04T07:43:28;101240.19;;;-0.98;78.07
70338;BME280;57757;53.198;19.646;2023-02-04T07:45:56;101245.33;;;-0.94;77.97
70338;BME280;57757;53.198;19.646;2023-02-04T07:48:24;101253.30;;;-0.95;77.81
70338;BME280;57757;53.198;19.646;2023-02-04T07:50:51;101255.63;;;-0.92;77.86
70338;BME280;57757;53.198;19.646;2023-02-04T07:53:19;101261.39;;;-0.89;77.91
70338;BME280;57757;53.198;19.646;2023-02-04T07:55:47;101262.52;;;-0.82;78.08
70338;BME280;57757;53.198;19.646;2023-02-04T07:58:15;101264.68;;;-0.75;78.08
70338;BME280;57757;53.198;19.646;2023-02-04T08:00:43;101267.38;;;-0.68;78.07
70338;BME280;57757;53.198;19.646;2023-02-04T08:03:11;101272.73;;;-0.62;78.01
70338;BME280;57757;53.198;19.646;2023-02-04T08:05:39;101273.45;;;-0.52;78.11
70338;BME280;57757;53.198;19.646;2023-02-04T08:08:06;101275.19;;;-0.37;78.16
70338;BME280;57757;53.198;19.646;2023-02-04T08:10:34;101270.27;;;-0.23;78.19
70338;BME280;57757;53.198;19.646;2023-02-04T08:13:02;101276.06;;;-0.10;78.12
70338;BME280;57757;53.198;19.646;2023-02-04T08:15:30;101275.64;;;-0.08;77.83
70338;BME280;57757;53.198;19.646;2023-02-04T08:17:58;101277.77;;;-0.10;77.74
70338;BME280;57757;53.198;19.646;2023-02-04T08:20:26;101278.80;;;-0.14;77.55
70338;BME280;57757;53.198;19.646;2023-02-04T08:22:54;101289.29;;;-0.17;77.59
70338;BME280;57757;53.198;19.646;2023-02-04T08:25:22;101300.41;;;-0.17;77.72
70338;BME280;57757;53.198;19.646;2023-02-04T08:27:49;101298.86;;;-0.13;77.88
70338;BME280;57757;53.198;19.646;2023-02-04T08:30:17;101291.50;;;-0.09;77.87
70338;BME280;57757;53.198;19.646;2023-02-04T08:32:45;101297.20;;;-0.07;77.79
70338;BME280;57757;53.198;19.646;2023-02-04T08:35:13;101300.96;;;0.02;77.97
70338;BME280;57757;53.198;19.646;2023-02-04T08:37:41;101303.44;;;0.09;77.88
70338;BME280;57757;53.198;19.646;2023-02-04T08:40:10;101309.98;;;0.06;77.55
70338;BME280;57757;53.198;19.646;2023-02-04T08:42:38;101319.16;;;0.04;77.52
70338;BME280;57757;53.198;19.646;2023-02-04T08:45:06;101316.41;;;-0.01;77.42
70338;BME280;57757;53.198;19.646;2023-02-04T08:47:34;101323.14;;;-0.09;77.27
70338;BME280;57757;53.198;19.646;2023-02-04T08:50:02;101326.61;;;-0.16;77.32
70338;BME280;57757;53.198;19.646;2023-02-04T08:52:30;101327.33;;;-0.15;77.47
70338;BME280;57757;53.198;19.646;2023-02-04T08:54:58;101327.90;;;-0.13;77.45
70338;BME280;57757;53.198;19.646;2023-02-04T08:57:26;101331.39;;;-0.12;77.46
70338;BME280;57757;53.198;19.646;2023-02-04T08:59:54;101340.55;;;-0.09;77.53
70338;BME280;57757;53.198;19.646;2023-02-04T09:02:22;101344.52;;;-0.04;77.55
70338;BME280;57757;53.198;19.646;2023-02-04T09:04:51;101349.73;;;-0.01;77.60
70338;BME280;57757;53.198;19.646;2023-02-04T09:07:18;101357.39;;;0.16;77.96
70338;BME280;57757;53.198;19.646;2023-02-04T09:09:47;101355.91;;;0.40;78.14
70338;BME280;57757;53.198;19.646;2023-02-04T09:12:15;101366.89;;;0.65;78.05
70338;BME280;57757;53.198;19.646;2023-02-04T09:14:43;101367.73;;;0.79;77.91
70338;BME280;57757;53.198;19.646;2023-02-04T09:17:11;101372.81;;;0.87;77.64
70338;BME280;57757;53.198;19.646;2023-02-04T09:19:39;101372.54;;;0.90;77.63
70338;BME280;57757;53.198;19.646;2023-02-04T09:22:07;101369.98;;;0.90;77.51
70338;BME280;57757;53.198;19.646;2023-02-04T09:24:35;101371.92;;;0.91;77.65
70338;BME280;57757;53.198;19.646;2023-02-04T09:27:03;101376.30;;;0.89;77.53
70338;BME280;57757;53.198;19.646;2023-02-04T09:29:31;101377.54;;;0.95;77.64
70338;BME280;57757;53.198;19.646;2023-02-04T09:31:59;101373.72;;;1.04;77.76
70338;BME280;57757;53.198;19.646;2023-02-04T09:34:27;101370.16;;;1.10;77.60
70338;BME280;57757;53.198;19.646;2023-02-04T09:36:55;101366.52;;;1.09;77.45
70338;BME280;57757;53.198;19.646;2023-02-04T09:39:23;101366.14;;;1.08;77.43
70338;BME280;57757;53.198;19.646;2023-02-04T09:41:51;101361.14;;;1.07;77.54
70338;BME280;57757;53.198;19.646;2023-02-04T09:44:24;101360.23;;;1.11;77.72
70338;BME280;57757;53.198;19.646;2023-02-04T09:46:56;101364.70;;;1.16;77.53
70338;BME280;57757;53.198;19.646;2023-02-04T09:49:26;101372.09;;;1.11;77.33
70338;BME280;57757;53.198;19.646;2023-02-04T09:51:54;101376.63;;;1.14;77.50
70338;BME280;57757;53.198;19.646;2023-02-04T09:54:23;101379.27;;;1.21;77.66
70338;BME280;57757;53.198;19.646;2023-02-04T09:56:51;101382.64;;;1.35;77.84
70338;BME280;57757;53.198;19.646;2023-02-04T09:59:21;101387.90;;;1.44;77.79
70338;BME280;57757;53.198;19.646;2023-02-04T10:02:10;101383.31;;;1.66;77.95
70338;BME280;57757;53.198;19.646;2023-02-04T10:04:40;101382.41;;;1.81;77.78
70338;BME280;57757;53.198;19.646;2023-02-04T10:07:11;101376.63;;;2.00;77.88
70338;BME280;57757;53.198;19.646;2023-02-04T10:09:39;101370.92;;;2.27;78.20
70338;BME280;57757;53.198;19.646;2023-02-04T10:12:07;101371.77;;;2.56;77.91
70338;BME280;57757;53.198;19.646;2023-02-04T10:14:35;101372.56;;;2.86;78.10
70338;BME280;57757;53.198;19.646;2023-02-04T10:17:03;101378.78;;;3.00;77.74
70338;BME280;57757;53.198;19.646;2023-02-04T10:19:31;101378.02;;;3.10;77.57
70338;BME280;57757;53.198;19.646;2023-02-04T10:21:59;101378.50;;;3.29;77.66
70338;BME280;57757;53.198;19.646;2023-02-04T10:24:27;101377.95;;;3.63;77.87
70338;BME280;57757;53.198;19.646;2023-02-04T10:27:13;101390.77;;;3.88;77.78
70338;BME280;57757;53.198;19.646;2023-02-04T10:29:59;101389.71;;;4.11;77.58
70338;BME280;57757;53.198;19.646;2023-02-04T10:32:32;101395.09;;;4.12;76.79
70338;BME280;57757;53.198;19.646;2023-02-04T10:35:01;101401.25;;;4.03;76.61
70338;BME280;57757;53.198;19.646;2023-02-04T10:37:30;101408.73;;;4.07;76.85
70338;BME280;57757;53.198;19.646;2023-02-04T10:39:58;101404.68;;;4.26;77.36
70338;BME280;57757;53.198;19.646;2023-02-04T10:42:30;101399.23;;;4.71;77.92
70338;BME280;57757;53.198;19.646;2023-02-04T10:44:58;101406.92;;;4.94;77.31
70338;BME280;57757;53.198;19.646;2023-02-04T10:47:28;101405.64;;;4.90;76.58
70338;BME280;57757;53.198;19.646;2023-02-04T10:52:44;101407.81;;;4.87;76.41
70338;BME280;57757;53.198;19.646;2023-02-04T10:55:17;101406.77;;;4.77;76.07
70338;BME280;57757;53.198;19.646;2023-02-04T10:57:50;101413.10;;;4.66;75.94
70338;BME280;57757;53.198;19.646;2023-02-04T11:00:23;101411.67;;;4.56;75.76
70338;BME280;57757;53.198;19.646;2023-02-04T11:02:57;101412.56;;;4.40;75.69
70338;BME280;57757;53.198;19.646;2023-02-04T11:05:31;101417.45;;;4.19;75.50
70338;BME280;57757;53.198;19.646;2023-02-04T11:08:01;101418.95;;;4.02;75.35
70338;BME280;57757;53.198;19.646;2023-02-04T11:10:32;101414.96;;;3.85;75.37
70338;BME280;57757;53.198;19.646;2023-02-04T11:13:05;101417.64;;;3.75;75.44
70338;BME280;57757;53.198;19.646;2023-02-04T11:15:50;101421.52;;;3.65;75.45
70338;BME280;57757;53.198;19.646;2023-02-04T11:20:52;101426.96;;;3.42;75.24
70338;BME280;57757;53.198;19.646;2023-02-04T11:29:08;101440.02;;;3.09;75.16
70338;BME280;57757;53.198;19.646;2023-02-04T11:31:56;101437.67;;;2.92;75.14
70338;BME280;57757;53.198;19.646;2023-02-04T11:34:28;101433.30;;;2.89;75.55
70338;BME280;57757;53.198;19.646;2023-02-04T11:41:59;101435.89;;;2.90;75.45
70338;BME280;57757;53.198;19.646;2023-02-04T11:44:28;101444.30;;;2.83;75.41
70338;BME280;57757;53.198;19.646;2023-02-04T11:46:57;101450.84;;;2.77;75.46
70338;BME280;57757;53.198;19.646;2023-02-04T11:49:27;101451.14;;;2.70;75.38
70338;BME280;57757;53.198;19.646;2023-02-04T11:52:12;101458.08;;;2.72;75.63
70338;BME280;57757;53.198;19.646;2023-02-04T11:54:41;101460.39;;;2.75;75.55
70338;BME280;57757;53.198;19.646;2023-02-04T11:57:12;101461.98;;;2.71;75.47
70338;BME280;57757;53.198;19.646;2023-02-04T11:59:40;101461.09;;;2.63;75.26
70338;BME280;57757;53.198;19.646;2023-02-04T12:02:24;101465.88;;;2.57;75.50
70338;BME280;57757;53.198;19.646;2023-02-04T12:05:07;101466.13;;;2.54;75.50
70338;BME280;57757;53.198;19.646;2023-02-04T12:07:36;101467.58;;;2.51;75.38
70338;BME280;57757;53.198;19.646;2023-02-04T12:10:13;101466.63;;;2.42;75.28
70338;BME280;57757;53.198;19.646;2023-02-04T12:12:53;101467.21;;;2.32;75.15
70338;BME280;57757;53.198;19.646;2023-02-04T12:15:31;101468.16;;;2.30;75.50
70338;BME280;57757;53.198;19.646;2023-02-04T12:18:05;101465.74;;;2.35;75.71
70338;BME280;57757;53.198;19.646;2023-02-04T12:20:38;101463.27;;;2.38;75.52
70338;BME280;57757;53.198;19.646;2023-02-04T12:23:07;101465.91;;;2.35;75.56
70338;BME280;57757;53.198;19.646;2023-02-04T12:25:35;101467.77;;;2.28;75.52
70338;BME280;57757;53.198;19.646;2023-02-04T12:28:03;101467.97;;;2.24;75.58
70338;BME280;57757;53.198;19.646;2023-02-04T12:30:31;101471.33;;;2.21;75.55
70338;BME280;57757;53.198;19.646;2023-02-04T12:33:00;101475.17;;;2.18;75.48
70338;BME280;57757;53.198;19.646;2023-02-04T12:35:28;101479.89;;;2.15;75.67
70338;BME280;57757;53.198;19.646;2023-02-04T12:37:56;101484.08;;;2.12;75.52
70338;BME280;57757;53.198;19.646;2023-02-04T12:40:25;101484.09;;;2.07;75.43
70338;BME280;57757;53.198;19.646;2023-02-04T12:42:57;101480.98;;;2.17;75.95
70338;BME280;57757;53.198;19.646;2023-02-04T12:45:25;101479.94;;;2.33;76.08
70338;BME280;57757;53.198;19.646;2023-02-04T12:47:55;101478.02;;;2.49;76.20
70338;BME280;57757;53.198;19.646;2023-02-04T12:50:23;101482.56;;;2.64;76.01
70338;BME280;57757;53.198;19.646;2023-02-04T12:52:56;101478.71;;;2.67;75.69
70338;BME280;57757;53.198;19.646;2023-02-04T12:55:26;101484.13;;;2.64;75.43
70338;BME280;57757;53.198;19.646;2023-02-04T12:57:57;101480.69;;;2.64;75.36
70338;BME280;57757;53.198;19.646;2023-02-04T13:00:25;101483.40;;;2.63;75.23
70338;BME280;57757;53.198;19.646;2023-02-04T13:02:54;101484.02;;;2.55;74.95
70338;BME280;57757;53.198;19.646;2023-02-04T13:05:22;101481.61;;;2.44;74.84
70338;BME280;57757;53.198;19.646;2023-02-04T13:07:51;101488.33;;;2.38;75.01